Latest Coastal Weather Observations for Cape Flattery

IDQ60701

Issued at 7:41 am EST Saturday 25 February 2017 (issued every 10 minutes, with the page automatically refreshed every 10 minutes)

About coastal observations | Map of coastal stations | Coastal observations for QLD | Marine services | Other Formats
Station Details ID: 031213 Name: CAPE FLATTERY Lat: -14.97 Lon: 145.31 Height: 18.5 m
Data from the previous 72 hours. | See also: Recent months at Cape Flattery
Date/Time
EST
Temp
°C
Wind Pressure Rain since
9am
mm
Weather Cloud Vis
km
Sea
Height
m
Swell
Dir  Spd
kts
Gust
kts
hPa Trend Height
m
Period
s
Dir
25/07:30am 26.5 SSE 9 11 1010.5 - 7.0 - - - - - - -
25/07:00am 25.9 SSE 7 9 1010.1 - 7.0 - - - - - - -
25/06:30am 25.4 S 7 8 1009.9 - 7.0 - - - - - - -
25/06:00am 25.3 SE 4 5 1009.6 - 7.0 - - - - - - -
25/05:30am 25.5 SE 7 8 1009.8 - 7.0 - - - - - - -
25/05:00am 25.7 SE 9 13 1009.9 - 7.0 - - - - - - -
25/04:30am 25.4 SSE 9 13 1009.9 - 7.0 - - - - - - -
25/04:00am 25.3 SSE 9 12 1010.0 - 7.0 - - - - - - -
25/03:30am 25.6 SSE 12 16 1009.6 - 7.0 - - - - - - -
25/03:00am 25.5 SSE 11 14 1009.6 - 7.0 - - - - - - -
25/02:30am 25.1 SSE 8 11 1009.7 - 7.0 - - - - - - -
25/02:00am 25.3 SSE 9 12 1009.8 - 7.0 - - - - - - -
25/01:30am 25.4 SSE 12 17 1010.1 - 7.0 - - - - - - -
25/01:00am 26.2 SSE 8 10 1010.4 - 7.0 - - - - - - -
25/12:30am 25.9 SSE 9 12 1010.9 - 7.0 - - - - - - -
25/12:00am 25.7 SE 6 8 1011.2 - 7.0 - - - - - - -
 
Date/Time
EST
Temp
°C
Wind Pressure Rain since
9am
mm
Weather Cloud Vis
km
Sea
Height
m
Swell
Dir  Spd
kts
Gust
kts
hPa Trend Height
m
Period
s
Dir
24/11:30pm 25.5 SE 7 8 1011.4 - 7.0 - - - - - - -
24/11:00pm 25.5 SE 7 9 1011.7 - 7.0 - - - - - - -
24/10:30pm 25.7 SE 8 11 1011.5 - 7.0 - - - - - - -
24/10:00pm 24.7 SE 5 6 1011.8 - 7.0 - - - - - - -
24/09:30pm 24.4 SE 5 6 1011.3 - 7.0 - - - - - - -
24/09:00pm 24.1 SE 6 8 1011.3 - 7.0 - - - - - - -
24/08:30pm 24.7 ESE 4 8 1010.8 - 7.0 - - - - - - -
24/08:00pm 25.1 SE 7 9 1010.5 - 7.0 - - - - - - -
24/07:30pm 26.0 SE 8 14 1010.2 - 6.8 - - - - - - -
24/07:00pm 27.2 SSE 10 13 1010.0 - 6.0 - - - - - - -
24/06:30pm 26.6 SE 4 8 1009.4 - 6.0 - - - - - - -
24/06:00pm 26.5 S 4 6 1009.1 - 5.4 Recent precip. - - - - - -
24/05:30pm 27.2 ESE 3 5 1008.9 - 2.8 - - - - - - -
24/05:00pm 27.2 SE 5 6 1008.8 - 2.8 - - - - - - -
24/04:30pm 27.0 S 4 5 1008.9 - 2.8 - - - - - - -
24/04:00pm 26.7 SSW 8 11 1009.4 - 2.0 - - - - - - -
24/03:30pm 27.7 NNE 3 4 1009.5 - 1.6 - - - - - - -
24/03:00pm 28.0 CALM 0 3 1009.8 - 1.6 - - - - - - -
24/02:30pm 27.7 NE 4 6 1010.0 - 1.6 - - - - - - -
24/02:00pm 27.8 ENE 1 4 1010.1 - 1.6 - - - - - - -
24/01:30pm 26.7 ENE 8 11 1010.2 - 1.0 - - - - - - -
24/01:00pm 28.7 SE 7 9 1010.5 - 0.2 - - - - - - -
24/12:30pm 29.0 SE 13 20 1010.9 - 0.2 - - - - - - -
24/12:00pm 31.4 E 10 14 1011.2 - 0.2 - - - - - - -
24/11:30am 30.8 E 13 18 1011.6 - 0.2 - - - - - - -
24/11:00am 32.1 E 8 13 1011.8 - 0.2 - - - - - - -
24/10:30am 30.8 ESE 10 14 1012.0 - 0.2 - - - - - - -
24/10:00am 31.5 ESE 9 16 1012.4 - 0.2 - - - - - - -
24/09:30am 31.1 E 9 13 1012.5 - 0.2 - - - - - - -
24/09:00am 29.8 ESE 9 14 1012.5 - 2.6 - - - - - - -
24/08:30am 30.0 ESE 9 12 1012.5 - 2.6 - - - - - - -
24/08:00am 28.5 ESE 8 12 1012.5 - 2.6 - - - - - - -
24/07:30am 27.8 ESE 7 11 1011.8 - 2.6 - - - - - - -
24/07:00am 27.1 ESE 7 10 1011.5 - 2.6 - - - - - - -
24/06:30am 26.8 ESE 7 9 1011.0 - 2.6 - - - - - - -
24/06:00am 26.8 ESE 8 10 1010.5 - 2.6 - - - - - - -
24/05:30am 26.6 ESE 6 8 1010.2 - 2.6 - - - - - - -
24/05:00am 26.7 ESE 7 11 1009.8 - 2.6 - - - - - - -
24/04:30am 26.7 ESE 7 13 1009.9 - 2.6 - - - - - - -
24/04:00am 26.6 SE 7 10 1010.1 - 2.2 - - - - - - -
24/03:30am 25.5 SSE 12 21 1010.0 - 2.2 - - - - - - -
24/03:24am 25.8 SSE 10 21 1010.4 - 1.8 - - - - - - -
24/03:00am 26.0 SE 6 10 1010.6 - 0.8 Rain - - - - - -
24/02:30am 27.4 SSE 11 14 1010.4 - 0.2 - - - - - - -
24/02:00am 27.0 SSE 12 16 1010.9 - 0.2 - - - - - - -
24/01:34am 26.8 SSE 15 25 1011.2 - 0.2 - - - - - - -
24/01:30am 27.7 SSE 11 25 1011.3 - 0.2 - - - - - - -
24/01:00am 28.5 SE 10 14 1011.6 - 0.2 - - - - - - -
24/12:30am 28.4 SE 10 14 1011.9 - 0.2 - - - - - - -
24/12:00am 28.6 SE 12 15 1012.1 - 0.2 - - - - - - -
 
Date/Time
EST
Temp
°C
Wind Pressure Rain since
9am
mm
Weather Cloud Vis
km
Sea
Height
m
Swell
Dir  Spd
kts
Gust
kts
hPa Trend Height
m
Period
s
Dir
23/11:30pm 28.8 SE 10 14 1012.3 - 0.2 - - - - - - -
23/11:00pm 28.7 SE 12 16 1012.5 - 0.2 - - - - - - -
23/10:30pm 28.5 SE 12 18 1012.6 - 0.2 - - - - - - -
23/10:00pm 28.5 SE 13 17 1012.4 - 0.2 - - - - - - -
23/09:30pm 28.7 SE 14 19 1012.0 - 0.2 - - - - - - -
23/09:00pm 28.8 SE 15 20 1011.8 - 0.2 - - - - - - -
23/08:30pm 28.8 SE 15 22 1011.6 - 0.2 - - - - - - -
23/08:00pm 28.7 SE 13 19 1011.4 - 0.2 - - - - - - -
23/07:30pm 28.8 SE 13 17 1011.1 - 0.0 - - - - - - -
23/07:00pm 28.6 SE 13 17 1011.0 - 0.0 - - - - - - -
23/06:30pm 28.8 SE 13 19 1010.7 - 0.0 - - - - - - -
23/06:00pm 29.4 SE 14 18 1010.4 - 0.0 - - - - - - -
23/05:30pm 29.9 SE 11 15 1010.0 - 0.0 - - - - - - -
23/05:00pm 30.4 SE 14 17 1010.0 - 0.0 - - - - - - -
23/04:30pm 29.9 SE 10 16 1009.9 - 0.0 - - - - - - -
23/04:00pm 29.1 ESE 13 19 1010.0 - 0.0 - - - - - - -
23/03:30pm 31.3 SE 12 19 1010.1 - 0.0 - - - - - - -
23/03:00pm 30.6 SE 11 16 1010.4 - 0.0 - - - - - - -
23/02:30pm 31.4 SSE 14 17 1010.6 - 0.0 - - - - - - -
23/02:00pm 30.5 SSE 15 21 1010.9 - 0.0 - - - - - - -
23/01:30pm 29.2 S 13 19 1011.1 - 0.0 - - - - - - -
23/01:00pm 31.5 SSE 15 20 1011.5 - 0.0 - - - - - - -
23/12:30pm 31.1 SSE 13 17 1012.0 - 0.0 - - - - - - -
23/12:00pm 31.4 SSE 13 17 1012.4 - 0.0 - - - - - - -
23/11:30am 30.9 SSE 13 17 1012.8 - 0.0 - - - - - - -
23/11:00am 30.2 SSE 13 18 1012.8 - 0.0 - - - - - - -
23/10:30am 30.1 SSE 15 19 1012.9 - 0.0 - - - - - - -
23/10:00am 30.6 SE 14 18 1012.9 - 0.0 - - - - - - -
23/09:30am 30.0 SSE 13 17 1013.0 - 0.0 - - - - - - -
23/09:00am 29.6 SE 12 16 1013.0 - 2.0 - - - - - - -
23/08:30am 29.1 SE 11 14 1012.9 - 2.0 - - - - - - -
23/08:00am 27.6 S 9 11 1012.6 - 2.0 - - - - - - -
23/07:30am 27.6 S 9 12 1011.9 - 2.0 - - - - - - -
23/07:00am 26.5 S 8 12 1011.7 - 2.0 - - - - - - -
23/06:30am 25.5 S 8 10 1011.7 - 2.0 - - - - - - -
23/06:00am 24.7 SSE 6 7 1011.4 - 2.0 - - - - - - -
23/05:30am 24.6 SSE 6 7 1011.3 - 2.0 - - - - - - -
23/05:00am 24.5 SE 4 6 1011.3 - 2.0 - - - - - - -
23/04:30am 24.3 SSE 4 6 1011.4 - 2.0 - - - - - - -
23/04:00am 24.6 SSW 4 6 1011.6 - 2.0 - - - - - - -
23/03:30am 25.2 CALM 0 4 1011.4 - 2.0 - - - - - - -
23/03:00am 25.2 WNW 3 4 1011.3 - 2.0 - - - - - - -
23/02:30am 25.7 WNW 2 6 1011.6 - 2.0 - - - - - - -
23/02:00am 25.8 SSW 1 6 1012.0 - 2.0 - - - - - - -
23/01:30am 25.9 SE 4 5 1012.5 - 1.8 - - - - - - -
23/01:00am 25.7 E 4 5 1012.8 - 0.8 - - - - - - -
23/12:30am 25.7 E 3 5 1013.3 - 0.6 - - - - - - -
23/12:00am 25.7 E 6 6 1013.4 - 0.6 - - - - - - -
 
Date/Time
EST
Temp
°C
Wind Pressure Rain since
9am
mm
Weather Cloud Vis
km
Sea
Height
m
Swell
Dir  Spd
kts
Gust
kts
hPa Trend Height
m
Period
s
Dir
22/11:30pm 26.0 ENE 8 11 1013.4 - 0.6 - - - - - - -
22/11:00pm 26.1 ESE 5 6 1013.5 - 0.6 - - - - - - -
22/10:30pm 25.6 SE 1 3 1013.4 - 0.6 - - - - - - -
22/10:05pm 26.1 SE 10 19 1013.4 - 0.4 - - - - - - -
22/10:00pm 28.0 ESE 6 9 1013.3 - 0.2 - - - - - - -
22/09:30pm 27.9 ESE 6 7 1012.8 - 0.2 - - - - - - -
22/09:00pm 27.8 ESE 6 8 1012.4 - 0.2 - - - - - - -
22/08:30pm 28.4 ESE 7 10 1012.2 - 0.2 - - - - - - -
22/08:00pm 28.6 ESE 7 11 1012.0 - 0.2 - - - - - - -
22/07:30pm 28.8 SE 9 12 1011.5 - 0.2 - - - - - - -
22/07:00pm 28.7 ESE 7 10 1011.1 - 0.2 - - - - - - -
22/06:30pm 28.9 ESE 8 12 1010.6 - 0.2 - - - - - - -
22/06:00pm 29.7 SE 8 11 1010.3 - 0.2 - - - - - - -
22/05:30pm 30.6 ESE 9 13 1010.3 - 0.2 - - - - - - -
22/05:00pm 30.7 SE 11 14 1009.9 - 0.2 - - - - - - -
22/04:30pm 31.2 SE 10 15 1009.6 - 0.2 - - - - - - -
22/04:00pm 31.1 SE 10 14 1009.8 - 0.2 - - - - - - -
22/03:30pm 31.5 ESE 10 14 1009.8 - 0.2 - - - - - - -
22/03:00pm 31.6 ESE 11 15 1009.8 - 0.2 - - - - - - -
22/02:30pm 31.7 SE 11 15 1010.1 - 0.2 - - - - - - -
22/02:00pm 32.1 SE 10 14 1010.4 - 0.2 - - - - - - -
22/01:30pm 30.4 ESE 10 17 1010.8 - 0.2 - - - - - - -
22/01:00pm 30.7 SE 11 15 1011.3 - 0.2 - - - - - - -
22/12:30pm 31.7 SE 11 15 1011.6 - 0.2 - - - - - - -
22/12:00pm 30.5 SE 10 15 1012.1 - 0.2 - - - - - - -
22/11:30am 30.5 SE 8 11 1012.5 - 0.2 - - - - - - -
22/11:00am 31.3 SE 9 11 1012.6 - 0.2 - - - - - - -
22/10:30am 31.1 SSE 11 15 1012.9 - 0.2 - - - - - - -
22/10:00am 30.4 SSE 10 13 1013.1 - 0.2 - - - - - - -
22/09:30am 30.3 SE 9 12 1013.0 - 0.2 - - - - - - -
22/09:00am 30.0 SSE 9 11 1013.0 - 0.8 - - - - - - -
22/08:30am 29.4 SSE 8 11 1012.8 - 0.8 - - - - - - -
22/08:00am 28.3 SSE 9 12 1012.5 - 0.8 - - - - - - -

Other Formats:

Comma delimited format used in spreadsheet applications
http://www.bom.gov.au/fwo/IDQ60701/IDQ60701.94188.axf

JavaScript Object Notation format (JSON) in row-major order
http://www.bom.gov.au/fwo/IDQ60701/IDQ60701.94188.json